sensor_id;sensor_type;location;lat;lon;timestamp;P1;durP1;ratioP1;P2;durP2;ratioP2
58974;SDS011;44751;52.236;5.178;2023-03-14T00:01:08;16.85;;;4.15;;
58974;SDS011;44751;52.236;5.178;2023-03-14T00:03:36;18.50;;;3.30;;
58974;SDS011;44751;52.236;5.178;2023-03-14T00:06:03;14.45;;;2.85;;
58974;SDS011;44751;52.236;5.178;2023-03-14T00:08:30;12.13;;;2.65;;
58974;SDS011;44751;52.236;5.178;2023-03-14T00:10:58;15.63;;;2.95;;
58974;SDS011;44751;52.236;5.178;2023-03-14T00:13:30;18.75;;;2.97;;
58974;SDS011;44751;52.236;5.178;2023-03-14T00:16:01;12.75;;;2.70;;
58974;SDS011;44751;52.236;5.178;2023-03-14T00:18:35;12.82;;;2.72;;
58974;SDS011;44751;52.236;5.178;2023-03-14T00:21:02;19.45;;;3.08;;
58974;SDS011;44751;52.236;5.178;2023-03-14T00:23:34;12.77;;;2.60;;
58974;SDS011;44751;52.236;5.178;2023-03-14T00:26:09;16.88;;;2.90;;
58974;SDS011;44751;52.236;5.178;2023-03-14T00:28:38;11.60;;;2.67;;
58974;SDS011;44751;52.236;5.178;2023-03-14T00:31:06;13.15;;;2.90;;
58974;SDS011;44751;52.236;5.178;2023-03-14T00:33:33;18.13;;;3.53;;
58974;SDS011;44751;52.236;5.178;2023-03-14T00:36:05;17.17;;;3.15;;
58974;SDS011;44751;52.236;5.178;2023-03-14T00:38:33;14.43;;;2.80;;
58974;SDS011;44751;52.236;5.178;2023-03-14T00:41:04;10.90;;;2.42;;
58974;SDS011;44751;52.236;5.178;2023-03-14T00:43:35;12.20;;;2.05;;
58974;SDS011;44751;52.236;5.178;2023-03-14T00:46:02;14.52;;;2.38;;
58974;SDS011;44751;52.236;5.178;2023-03-14T00:48:28;13.82;;;2.60;;
58974;SDS011;44751;52.236;5.178;2023-03-14T00:50:55;18.75;;;3.30;;
58974;SDS011;44751;52.236;5.178;2023-03-14T00:53:22;12.82;;;2.90;;
58974;SDS011;44751;52.236;5.178;2023-03-14T00:55:49;13.43;;;3.10;;
58974;SDS011;44751;52.236;5.178;2023-03-14T00:58:16;16.23;;;3.28;;
58974;SDS011;44751;52.236;5.178;2023-03-14T01:00:44;13.85;;;3.17;;
58974;SDS011;44751;52.236;5.178;2023-03-14T01:03:11;16.00;;;2.88;;
58974;SDS011;44751;52.236;5.178;2023-03-14T01:05:38;18.52;;;3.30;;
58974;SDS011;44751;52.236;5.178;2023-03-14T01:08:07;14.23;;;2.90;;
58974;SDS011;44751;52.236;5.178;2023-03-14T01:10:34;16.60;;;3.42;;
58974;SDS011;44751;52.236;5.178;2023-03-14T01:13:04;10.65;;;2.65;;
58974;SDS011;44751;52.236;5.178;2023-03-14T01:15:31;11.82;;;3.17;;
58974;SDS011;44751;52.236;5.178;2023-03-14T01:17:59;9.90;;;2.50;;
58974;SDS011;44751;52.236;5.178;2023-03-14T01:20:25;9.48;;;2.78;;
58974;SDS011;44751;52.236;5.178;2023-03-14T01:22:52;10.45;;;2.45;;
58974;SDS011;44751;52.236;5.178;2023-03-14T01:25:18;13.20;;;3.05;;
58974;SDS011;44751;52.236;5.178;2023-03-14T01:27:44;12.80;;;3.35;;
58974;SDS011;44751;52.236;5.178;2023-03-14T01:30:11;8.75;;;2.92;;
58974;SDS011;44751;52.236;5.178;2023-03-14T01:32:38;12.85;;;3.63;;
58974;SDS011;44751;52.236;5.178;2023-03-14T01:35:05;15.93;;;3.75;;
58974;SDS011;44751;52.236;5.178;2023-03-14T01:37:32;17.30;;;3.78;;
58974;SDS011;44751;52.236;5.178;2023-03-14T01:39:58;14.27;;;3.33;;
58974;SDS011;44751;52.236;5.178;2023-03-14T01:42:24;15.30;;;3.60;;
58974;SDS011;44751;52.236;5.178;2023-03-14T01:44:55;13.10;;;3.55;;
58974;SDS011;44751;52.236;5.178;2023-03-14T01:47:23;16.85;;;3.45;;
58974;SDS011;44751;52.236;5.178;2023-03-14T01:49:58;10.27;;;3.17;;
58974;SDS011;44751;52.236;5.178;2023-03-14T01:52:29;10.88;;;3.10;;
58974;SDS011;44751;52.236;5.178;2023-03-14T01:55:06;12.80;;;3.03;;
58974;SDS011;44751;52.236;5.178;2023-03-14T01:57:37;12.82;;;3.17;;
58974;SDS011;44751;52.236;5.178;2023-03-14T02:00:09;9.27;;;2.92;;
58974;SDS011;44751;52.236;5.178;2023-03-14T02:03:01;15.63;;;3.10;;
58974;SDS011;44751;52.236;5.178;2023-03-14T02:05:32;13.43;;;2.88;;
58974;SDS011;44751;52.236;5.178;2023-03-14T02:08:04;10.23;;;2.53;;
58974;SDS011;44751;52.236;5.178;2023-03-14T02:10:37;13.98;;;2.50;;
58974;SDS011;44751;52.236;5.178;2023-03-14T02:13:10;15.02;;;3.03;;
58974;SDS011;44751;52.236;5.178;2023-03-14T02:15:38;11.18;;;2.83;;
58974;SDS011;44751;52.236;5.178;2023-03-14T02:18:06;20.10;;;3.10;;
58974;SDS011;44751;52.236;5.178;2023-03-14T02:23:29;16.13;;;2.97;;
58974;SDS011;44751;52.236;5.178;2023-03-14T02:26:27;13.32;;;2.90;;
58974;SDS011;44751;52.236;5.178;2023-03-14T02:29:09;10.43;;;2.63;;
58974;SDS011;44751;52.236;5.178;2023-03-14T02:31:36;11.80;;;2.40;;
58974;SDS011;44751;52.236;5.178;2023-03-14T02:34:02;16.55;;;3.03;;
58974;SDS011;44751;52.236;5.178;2023-03-14T02:36:29;12.25;;;2.13;;
58974;SDS011;44751;52.236;5.178;2023-03-14T02:39:10;14.93;;;2.70;;
58974;SDS011;44751;52.236;5.178;2023-03-14T02:41:41;13.10;;;2.58;;
58974;SDS011;44751;52.236;5.178;2023-03-14T02:44:10;10.82;;;2.10;;
58974;SDS011;44751;52.236;5.178;2023-03-14T02:46:36;11.65;;;1.73;;
58974;SDS011;44751;52.236;5.178;2023-03-14T02:49:12;9.93;;;2.05;;
58974;SDS011;44751;52.236;5.178;2023-03-14T02:51:40;13.52;;;2.00;;
58974;SDS011;44751;52.236;5.178;2023-03-14T02:54:09;11.90;;;2.00;;
58974;SDS011;44751;52.236;5.178;2023-03-14T02:56:38;10.45;;;1.65;;
58974;SDS011;44751;52.236;5.178;2023-03-14T02:59:05;12.82;;;2.13;;
58974;SDS011;44751;52.236;5.178;2023-03-14T03:01:32;8.52;;;1.83;;
58974;SDS011;44751;52.236;5.178;2023-03-14T03:04:00;9.98;;;1.50;;
58974;SDS011;44751;52.236;5.178;2023-03-14T03:06:29;10.65;;;2.45;;
58974;SDS011;44751;52.236;5.178;2023-03-14T03:08:55;13.88;;;2.55;;
58974;SDS011;44751;52.236;5.178;2023-03-14T03:11:22;13.68;;;2.63;;
58974;SDS011;44751;52.236;5.178;2023-03-14T03:13:48;8.88;;;2.22;;
58974;SDS011;44751;52.236;5.178;2023-03-14T03:16:15;9.85;;;2.15;;
58974;SDS011;44751;52.236;5.178;2023-03-14T03:18:41;11.40;;;2.38;;
58974;SDS011;44751;52.236;5.178;2023-03-14T03:21:10;12.45;;;2.47;;
58974;SDS011;44751;52.236;5.178;2023-03-14T03:23:36;11.00;;;2.65;;
58974;SDS011;44751;52.236;5.178;2023-03-14T03:26:03;10.60;;;2.30;;
58974;SDS011;44751;52.236;5.178;2023-03-14T03:28:29;12.10;;;2.50;;
58974;SDS011;44751;52.236;5.178;2023-03-14T03:30:56;11.02;;;2.33;;
58974;SDS011;44751;52.236;5.178;2023-03-14T03:33:22;10.73;;;2.35;;
58974;SDS011;44751;52.236;5.178;2023-03-14T03:35:50;14.15;;;2.80;;
58974;SDS011;44751;52.236;5.178;2023-03-14T03:38:17;8.30;;;2.30;;
58974;SDS011;44751;52.236;5.178;2023-03-14T03:40:45;12.18;;;2.20;;
58974;SDS011;44751;52.236;5.178;2023-03-14T03:43:11;8.15;;;2.15;;
58974;SDS011;44751;52.236;5.178;2023-03-14T03:45:37;14.18;;;2.88;;
58974;SDS011;44751;52.236;5.178;2023-03-14T03:48:06;11.02;;;2.47;;
58974;SDS011;44751;52.236;5.178;2023-03-14T03:50:33;14.45;;;3.10;;
58974;SDS011;44751;52.236;5.178;2023-03-14T03:52:59;9.32;;;2.35;;
58974;SDS011;44751;52.236;5.178;2023-03-14T03:55:26;10.50;;;2.08;;
58974;SDS011;44751;52.236;5.178;2023-03-14T03:57:53;8.80;;;2.17;;
58974;SDS011;44751;52.236;5.178;2023-03-14T04:00:19;13.07;;;2.55;;
58974;SDS011;44751;52.236;5.178;2023-03-14T04:02:46;7.97;;;2.17;;
58974;SDS011;44751;52.236;5.178;2023-03-14T04:05:12;12.80;;;2.47;;
58974;SDS011;44751;52.236;5.178;2023-03-14T04:07:38;12.23;;;2.30;;
58974;SDS011;44751;52.236;5.178;2023-03-14T04:10:05;12.75;;;2.88;;
58974;SDS011;44751;52.236;5.178;2023-03-14T04:12:31;11.05;;;2.22;;
58974;SDS011;44751;52.236;5.178;2023-03-14T04:14:58;12.82;;;2.70;;
58974;SDS011;44751;52.236;5.178;2023-03-14T04:17:24;9.32;;;2.03;;
58974;SDS011;44751;52.236;5.178;2023-03-14T04:19:50;11.48;;;2.22;;
58974;SDS011;44751;52.236;5.178;2023-03-14T04:22:18;10.10;;;1.90;;
58974;SDS011;44751;52.236;5.178;2023-03-14T04:24:45;9.15;;;2.10;;
58974;SDS011;44751;52.236;5.178;2023-03-14T04:27:11;16.42;;;2.95;;
58974;SDS011;44751;52.236;5.178;2023-03-14T04:29:42;10.45;;;2.53;;
58974;SDS011;44751;52.236;5.178;2023-03-14T04:32:09;11.88;;;2.30;;
58974;SDS011;44751;52.236;5.178;2023-03-14T04:34:35;8.20;;;2.15;;
58974;SDS011;44751;52.236;5.178;2023-03-14T04:37:02;12.32;;;2.60;;
58974;SDS011;44751;52.236;5.178;2023-03-14T04:39:29;15.13;;;2.20;;
58974;SDS011;44751;52.236;5.178;2023-03-14T04:41:55;10.85;;;2.08;;
58974;SDS011;44751;52.236;5.178;2023-03-14T04:44:21;10.90;;;2.10;;
58974;SDS011;44751;52.236;5.178;2023-03-14T04:46:50;13.02;;;2.72;;
58974;SDS011;44751;52.236;5.178;2023-03-14T04:49:17;10.45;;;2.17;;
58974;SDS011;44751;52.236;5.178;2023-03-14T04:51:43;10.63;;;2.38;;
58974;SDS011;44751;52.236;5.178;2023-03-14T04:54:09;11.98;;;2.65;;
58974;SDS011;44751;52.236;5.178;2023-03-14T04:56:36;10.63;;;2.35;;
58974;SDS011;44751;52.236;5.178;2023-03-14T04:59:03;15.50;;;3.28;;
58974;SDS011;44751;52.236;5.178;2023-03-14T05:01:30;8.85;;;2.45;;
58974;SDS011;44751;52.236;5.178;2023-03-14T05:03:56;14.13;;;2.80;;
58974;SDS011;44751;52.236;5.178;2023-03-14T05:06:22;13.57;;;2.03;;
58974;SDS011;44751;52.236;5.178;2023-03-14T05:08:49;13.43;;;2.65;;
58974;SDS011;44751;52.236;5.178;2023-03-14T05:11:20;14.68;;;2.38;;
58974;SDS011;44751;52.236;5.178;2023-03-14T05:13:46;11.23;;;2.78;;
58974;SDS011;44751;52.236;5.178;2023-03-14T05:16:13;13.55;;;2.28;;
58974;SDS011;44751;52.236;5.178;2023-03-14T05:18:39;8.55;;;2.17;;
58974;SDS011;44751;52.236;5.178;2023-03-14T05:21:05;10.65;;;2.40;;
58974;SDS011;44751;52.236;5.178;2023-03-14T05:23:32;16.08;;;2.78;;
58974;SDS011;44751;52.236;5.178;2023-03-14T05:26:01;14.13;;;2.72;;
58974;SDS011;44751;52.236;5.178;2023-03-14T05:28:28;11.85;;;2.30;;
58974;SDS011;44751;52.236;5.178;2023-03-14T05:30:54;11.25;;;2.63;;
58974;SDS011;44751;52.236;5.178;2023-03-14T05:33:20;12.77;;;2.80;;
58974;SDS011;44751;52.236;5.178;2023-03-14T05:35:47;8.48;;;2.10;;
58974;SDS011;44751;52.236;5.178;2023-03-14T05:38:13;11.15;;;2.90;;
58974;SDS011;44751;52.236;5.178;2023-03-14T05:40:40;10.00;;;2.35;;
58974;SDS011;44751;52.236;5.178;2023-03-14T05:43:06;10.93;;;3.15;;
58974;SDS011;44751;52.236;5.178;2023-03-14T05:45:33;8.50;;;2.53;;
58974;SDS011;44751;52.236;5.178;2023-03-14T05:48:00;9.88;;;3.17;;
58974;SDS011;44751;52.236;5.178;2023-03-14T05:50:29;10.23;;;2.80;;
58974;SDS011;44751;52.236;5.178;2023-03-14T05:52:56;8.05;;;2.90;;
58974;SDS011;44751;52.236;5.178;2023-03-14T05:55:22;8.43;;;2.88;;
58974;SDS011;44751;52.236;5.178;2023-03-14T05:57:48;10.00;;;3.08;;
58974;SDS011;44751;52.236;5.178;2023-03-14T06:00:15;6.22;;;2.85;;
58974;SDS011;44751;52.236;5.178;2023-03-14T06:02:42;6.28;;;2.72;;
58974;SDS011;44751;52.236;5.178;2023-03-14T06:05:13;11.32;;;4.00;;
58974;SDS011;44751;52.236;5.178;2023-03-14T06:07:40;7.55;;;3.03;;
58974;SDS011;44751;52.236;5.178;2023-03-14T06:10:06;7.45;;;2.88;;
58974;SDS011;44751;52.236;5.178;2023-03-14T06:12:33;6.35;;;2.85;;
58974;SDS011;44751;52.236;5.178;2023-03-14T06:15:00;8.13;;;3.40;;
58974;SDS011;44751;52.236;5.178;2023-03-14T06:17:26;8.02;;;3.30;;
58974;SDS011;44751;52.236;5.178;2023-03-14T06:19:55;6.32;;;3.03;;
58974;SDS011;44751;52.236;5.178;2023-03-14T06:22:21;10.32;;;3.13;;
58974;SDS011;44751;52.236;5.178;2023-03-14T06:24:48;5.82;;;1.40;;
58974;SDS011;44751;52.236;5.178;2023-03-14T06:27:14;4.07;;;1.23;;
58974;SDS011;44751;52.236;5.178;2023-03-14T06:29:44;3.05;;;0.80;;
58974;SDS011;44751;52.236;5.178;2023-03-14T06:32:19;1.55;;;0.65;;
58974;SDS011;44751;52.236;5.178;2023-03-14T06:34:46;1.30;;;0.70;;
58974;SDS011;44751;52.236;5.178;2023-03-14T06:37:12;2.20;;;0.80;;
58974;SDS011;44751;52.236;5.178;2023-03-14T06:39:39;3.97;;;0.77;;
58974;SDS011;44751;52.236;5.178;2023-03-14T06:42:08;3.05;;;0.93;;
58974;SDS011;44751;52.236;5.178;2023-03-14T06:44:35;4.25;;;0.90;;
58974;SDS011;44751;52.236;5.178;2023-03-14T06:47:01;3.20;;;0.90;;
58974;SDS011;44751;52.236;5.178;2023-03-14T06:49:28;4.18;;;1.02;;
58974;SDS011;44751;52.236;5.178;2023-03-14T06:51:54;3.78;;;1.10;;
58974;SDS011;44751;52.236;5.178;2023-03-14T06:54:21;7.20;;;1.67;;
58974;SDS011;44751;52.236;5.178;2023-03-14T06:56:50;4.18;;;1.58;;
58974;SDS011;44751;52.236;5.178;2023-03-14T06:59:16;3.63;;;1.20;;
58974;SDS011;44751;52.236;5.178;2023-03-14T07:01:43;3.13;;;1.20;;
58974;SDS011;44751;52.236;5.178;2023-03-14T07:04:09;7.15;;;3.60;;
58974;SDS011;44751;52.236;5.178;2023-03-14T07:06:36;2.95;;;1.10;;
58974;SDS011;44751;52.236;5.178;2023-03-14T07:09:04;4.75;;;1.25;;
58974;SDS011;44751;52.236;5.178;2023-03-14T07:11:33;4.15;;;1.20;;
58974;SDS011;44751;52.236;5.178;2023-03-14T07:13:59;3.40;;;0.80;;
58974;SDS011;44751;52.236;5.178;2023-03-14T07:16:25;2.60;;;0.82;;
58974;SDS011;44751;52.236;5.178;2023-03-14T07:18:53;2.05;;;1.00;;
58974;SDS011;44751;52.236;5.178;2023-03-14T07:21:20;6.90;;;1.13;;
58974;SDS011;44751;52.236;5.178;2023-03-14T07:23:47;4.50;;;0.70;;
58974;SDS011;44751;52.236;5.178;2023-03-14T07:26:13;3.70;;;1.15;;
58974;SDS011;44751;52.236;5.178;2023-03-14T07:28:39;2.38;;;0.80;;
58974;SDS011;44751;52.236;5.178;2023-03-14T07:31:06;3.63;;;1.00;;
58974;SDS011;44751;52.236;5.178;2023-03-14T07:33:33;6.10;;;0.90;;
58974;SDS011;44751;52.236;5.178;2023-03-14T07:35:59;8.23;;;0.88;;
58974;SDS011;44751;52.236;5.178;2023-03-14T07:38:28;6.43;;;1.05;;
58974;SDS011;44751;52.236;5.178;2023-03-14T07:41:01;3.33;;;0.98;;
58974;SDS011;44751;52.236;5.178;2023-03-14T07:43:28;4.53;;;1.02;;
58974;SDS011;44751;52.236;5.178;2023-03-14T07:45:55;4.20;;;1.10;;
58974;SDS011;44751;52.236;5.178;2023-03-14T07:48:21;7.40;;;1.30;;
58974;SDS011;44751;52.236;5.178;2023-03-14T07:50:50;6.70;;;1.13;;
58974;SDS011;44751;52.236;5.178;2023-03-14T07:53:17;5.50;;;1.40;;
58974;SDS011;44751;52.236;5.178;2023-03-14T07:55:44;10.48;;;1.08;;
58974;SDS011;44751;52.236;5.178;2023-03-14T07:58:11;6.20;;;1.00;;
58974;SDS011;44751;52.236;5.178;2023-03-14T08:00:41;9.98;;;1.35;;
58974;SDS011;44751;52.236;5.178;2023-03-14T08:03:07;10.93;;;1.50;;
58974;SDS011;44751;52.236;5.178;2023-03-14T08:05:35;9.07;;;1.38;;
58974;SDS011;44751;52.236;5.178;2023-03-14T08:08:03;4.75;;;0.80;;
58974;SDS011;44751;52.236;5.178;2023-03-14T08:10:30;6.20;;;0.80;;
58974;SDS011;44751;52.236;5.178;2023-03-14T08:12:59;8.02;;;0.98;;
58974;SDS011;44751;52.236;5.178;2023-03-14T08:15:28;7.10;;;0.73;;
58974;SDS011;44751;52.236;5.178;2023-03-14T08:17:55;4.40;;;0.50;;
58974;SDS011;44751;52.236;5.178;2023-03-14T08:20:23;5.03;;;0.70;;
58974;SDS011;44751;52.236;5.178;2023-03-14T08:22:50;4.80;;;0.95;;
58974;SDS011;44751;52.236;5.178;2023-03-14T08:25:17;4.95;;;1.10;;
58974;SDS011;44751;52.236;5.178;2023-03-14T08:27:44;4.30;;;0.80;;
58974;SDS011;44751;52.236;5.178;2023-03-14T08:30:11;4.32;;;0.90;;
58974;SDS011;44751;52.236;5.178;2023-03-14T08:32:40;5.97;;;0.75;;
58974;SDS011;44751;52.236;5.178;2023-03-14T08:35:06;9.73;;;2.35;;
58974;SDS011;44751;52.236;5.178;2023-03-14T08:37:33;5.18;;;1.00;;
58974;SDS011;44751;52.236;5.178;2023-03-14T08:40:01;5.38;;;0.73;;
58974;SDS011;44751;52.236;5.178;2023-03-14T08:42:31;8.57;;;1.38;;
58974;SDS011;44751;52.236;5.178;2023-03-14T08:44:57;8.57;;;1.52;;
58974;SDS011;44751;52.236;5.178;2023-03-14T08:47:24;11.73;;;2.13;;
58974;SDS011;44751;52.236;5.178;2023-03-14T08:49:50;13.70;;;1.83;;
58974;SDS011;44751;52.236;5.178;2023-03-14T08:52:19;12.68;;;1.85;;
58974;SDS011;44751;52.236;5.178;2023-03-14T08:54:46;12.82;;;2.92;;
58974;SDS011;44751;52.236;5.178;2023-03-14T08:57:13;10.32;;;1.85;;
58974;SDS011;44751;52.236;5.178;2023-03-14T08:59:39;12.00;;;1.60;;
58974;SDS011;44751;52.236;5.178;2023-03-14T09:02:05;16.20;;;2.88;;
58974;SDS011;44751;52.236;5.178;2023-03-14T09:04:32;20.27;;;2.40;;
58974;SDS011;44751;52.236;5.178;2023-03-14T09:07:00;12.85;;;2.03;;
58974;SDS011;44751;52.236;5.178;2023-03-14T09:09:26;13.20;;;2.25;;
58974;SDS011;44751;52.236;5.178;2023-03-14T09:11:53;15.68;;;2.10;;
58974;SDS011;44751;52.236;5.178;2023-03-14T09:14:20;20.15;;;2.95;;
58974;SDS011;44751;52.236;5.178;2023-03-14T09:16:47;13.43;;;2.05;;
58974;SDS011;44751;52.236;5.178;2023-03-14T09:19:13;14.05;;;2.88;;
58974;SDS011;44751;52.236;5.178;2023-03-14T09:21:40;14.23;;;2.40;;
58974;SDS011;44751;52.236;5.178;2023-03-14T09:24:06;14.55;;;2.28;;
58974;SDS011;44751;52.236;5.178;2023-03-14T09:26:33;20.98;;;2.50;;
58974;SDS011;44751;52.236;5.178;2023-03-14T09:28:59;13.75;;;2.60;;
58974;SDS011;44751;52.236;5.178;2023-03-14T09:31:26;14.50;;;2.58;;
58974;SDS011;44751;52.236;5.178;2023-03-14T09:33:57;14.18;;;2.10;;
58974;SDS011;44751;52.236;5.178;2023-03-14T09:36:23;13.63;;;2.42;;
58974;SDS011;44751;52.236;5.178;2023-03-14T09:38:49;14.90;;;2.40;;
58974;SDS011;44751;52.236;5.178;2023-03-14T09:41:29;12.48;;;1.90;;
58974;SDS011;44751;52.236;5.178;2023-03-14T09:44:04;9.30;;;1.80;;
58974;SDS011;44751;52.236;5.178;2023-03-14T09:46:35;13.55;;;2.13;;
58974;SDS011;44751;52.236;5.178;2023-03-14T09:49:11;16.02;;;2.25;;
58974;SDS011;44751;52.236;5.178;2023-03-14T09:51:46;11.15;;;2.50;;
58974;SDS011;44751;52.236;5.178;2023-03-14T09:54:24;12.77;;;2.35;;
58974;SDS011;44751;52.236;5.178;2023-03-14T09:56:57;15.77;;;2.10;;
58974;SDS011;44751;52.236;5.178;2023-03-14T09:59:24;14.65;;;2.30;;
58974;SDS011;44751;52.236;5.178;2023-03-14T10:01:52;12.73;;;2.45;;
58974;SDS011;44751;52.236;5.178;2023-03-14T10:04:21;18.88;;;2.40;;
58974;SDS011;44751;52.236;5.178;2023-03-14T10:06:48;16.02;;;3.20;;
58974;SDS011;44751;52.236;5.178;2023-03-14T10:09:17;19.35;;;3.08;;
58974;SDS011;44751;52.236;5.178;2023-03-14T10:11:58;18.85;;;2.45;;
58974;SDS011;44751;52.236;5.178;2023-03-14T10:14:30;16.30;;;2.28;;
58974;SDS011;44751;52.236;5.178;2023-03-14T10:17:08;13.63;;;2.53;;
58974;SDS011;44751;52.236;5.178;2023-03-14T10:19:59;16.77;;;2.50;;
58974;SDS011;44751;52.236;5.178;2023-03-14T10:22:31;19.60;;;2.95;;
58974;SDS011;44751;52.236;5.178;2023-03-14T10:25:02;15.85;;;2.38;;
58974;SDS011;44751;52.236;5.178;2023-03-14T10:27:34;17.73;;;2.88;;
58974;SDS011;44751;52.236;5.178;2023-03-14T10:30:03;17.52;;;2.47;;
58974;SDS011;44751;52.236;5.178;2023-03-14T10:32:37;21.90;;;3.57;;
58974;SDS011;44751;52.236;5.178;2023-03-14T10:35:23;28.13;;;3.83;;
58974;SDS011;44751;52.236;5.178;2023-03-14T10:37:51;19.80;;;3.58;;
58974;SDS011;44751;52.236;5.178;2023-03-14T10:40:19;21.17;;;3.20;;
58974;SDS011;44751;52.236;5.178;2023-03-14T10:42:49;22.02;;;2.70;;
58974;SDS011;44751;52.236;5.178;2023-03-14T10:51:03;25.52;;;3.35;;
58974;SDS011;44751;52.236;5.178;2023-03-14T10:53:49;19.95;;;2.95;;
58974;SDS011;44751;52.236;5.178;2023-03-14T10:56:24;16.63;;;2.05;;
58974;SDS011;44751;52.236;5.178;2023-03-14T10:58:58;16.02;;;2.42;;
58974;SDS011;44751;52.236;5.178;2023-03-14T11:01:27;17.23;;;2.28;;
58974;SDS011;44751;52.236;5.178;2023-03-14T11:06:44;20.33;;;2.65;;
58974;SDS011;44751;52.236;5.178;2023-03-14T11:12:36;20.10;;;2.90;;
58974;SDS011;44751;52.236;5.178;2023-03-14T11:15:24;15.18;;;2.40;;
58974;SDS011;44751;52.236;5.178;2023-03-14T11:21:12;11.85;;;2.03;;
58974;SDS011;44751;52.236;5.178;2023-03-14T11:23:58;16.13;;;2.47;;
58974;SDS011;44751;52.236;5.178;2023-03-14T11:26:42;13.48;;;2.70;;
58974;SDS011;44751;52.236;5.178;2023-03-14T11:32:04;15.20;;;1.80;;
58974;SDS011;44751;52.236;5.178;2023-03-14T11:34:51;11.73;;;1.98;;
58974;SDS011;44751;52.236;5.178;2023-03-14T11:37:26;12.70;;;2.05;;
58974;SDS011;44751;52.236;5.178;2023-03-14T11:39:59;12.23;;;1.80;;
58974;SDS011;44751;52.236;5.178;2023-03-14T11:42:39;13.75;;;2.05;;
58974;SDS011;44751;52.236;5.178;2023-03-14T11:45:14;8.38;;;1.92;;
58974;SDS011;44751;52.236;5.178;2023-03-14T11:47:44;11.93;;;2.40;;
58974;SDS011;44751;52.236;5.178;2023-03-14T11:50:20;14.43;;;2.08;;
58974;SDS011;44751;52.236;5.178;2023-03-14T11:55:48;12.85;;;2.47;;
58974;SDS011;44751;52.236;5.178;2023-03-14T11:58:29;14.82;;;2.28;;
58974;SDS011;44751;52.236;5.178;2023-03-14T12:01:03;11.63;;;2.80;;
58974;SDS011;44751;52.236;5.178;2023-03-14T12:03:57;14.02;;;2.05;;
58974;SDS011;44751;52.236;5.178;2023-03-14T12:06:26;15.73;;;1.95;;
58974;SDS011;44751;52.236;5.178;2023-03-14T12:09:06;12.45;;;1.90;;
58974;SDS011;44751;52.236;5.178;2023-03-14T12:20:33;8.68;;;1.48;;
58974;SDS011;44751;52.236;5.178;2023-03-14T12:23:05;8.50;;;1.38;;
58974;SDS011;44751;52.236;5.178;2023-03-14T12:25:37;9.13;;;1.30;;
58974;SDS011;44751;52.236;5.178;2023-03-14T12:28:17;11.20;;;1.92;;
58974;SDS011;44751;52.236;5.178;2023-03-14T12:30:56;9.18;;;1.63;;
58974;SDS011;44751;52.236;5.178;2023-03-14T12:33:29;5.82;;;1.20;;
58974;SDS011;44751;52.236;5.178;2023-03-14T12:36:00;9.85;;;1.67;;
58974;SDS011;44751;52.236;5.178;2023-03-14T12:41:38;8.88;;;2.00;;
58974;SDS011;44751;52.236;5.178;2023-03-14T12:46:56;6.78;;;1.35;;
58974;SDS011;44751;52.236;5.178;2023-03-14T12:49:30;13.50;;;1.70;;
58974;SDS011;44751;52.236;5.178;2023-03-14T12:52:01;9.48;;;1.58;;
58974;SDS011;44751;52.236;5.178;2023-03-14T12:54:40;6.75;;;1.35;;
58974;SDS011;44751;52.236;5.178;2023-03-14T13:00:20;6.10;;;1.17;;
58974;SDS011;44751;52.236;5.178;2023-03-14T13:02:48;8.55;;;1.63;;
58974;SDS011;44751;52.236;5.178;2023-03-14T13:05:19;8.10;;;1.33;;
58974;SDS011;44751;52.236;5.178;2023-03-14T13:10:29;6.53;;;1.55;;
58974;SDS011;44751;52.236;5.178;2023-03-14T13:13:04;9.10;;;1.90;;
58974;SDS011;44751;52.236;5.178;2023-03-14T13:15:48;6.03;;;1.10;;
58974;SDS011;44751;52.236;5.178;2023-03-14T13:18:43;8.57;;;1.30;;
58974;SDS011;44751;52.236;5.178;2023-03-14T13:21:18;6.60;;;1.52;;
58974;SDS011;44751;52.236;5.178;2023-03-14T13:23:59;7.35;;;1.35;;
58974;SDS011;44751;52.236;5.178;2023-03-14T13:26:41;8.45;;;1.63;;
58974;SDS011;44751;52.236;5.178;2023-03-14T13:29:51;8.45;;;1.40;;
58974;SDS011;44751;52.236;5.178;2023-03-14T13:31:59;8.93;;;1.38;;
58974;SDS011;44751;52.236;5.178;2023-03-14T13:34:34;8.57;;;1.58;;
58974;SDS011;44751;52.236;5.178;2023-03-14T13:37:03;15.07;;;2.10;;
58974;SDS011;44751;52.236;5.178;2023-03-14T13:39:30;9.35;;;1.60;;
58974;SDS011;44751;52.236;5.178;2023-03-14T13:41:58;12.02;;;1.65;;
58974;SDS011;44751;52.236;5.178;2023-03-14T13:44:27;10.75;;;1.83;;
58974;SDS011;44751;52.236;5.178;2023-03-14T13:46:58;11.48;;;1.70;;
58974;SDS011;44751;52.236;5.178;2023-03-14T13:49:29;10.55;;;1.38;;
58974;SDS011;44751;52.236;5.178;2023-03-14T13:52:00;8.73;;;1.70;;
58974;SDS011;44751;52.236;5.178;2023-03-14T13:54:27;8.82;;;1.77;;
58974;SDS011;44751;52.236;5.178;2023-03-14T13:57:03;8.13;;;1.42;;
58974;SDS011;44751;52.236;5.178;2023-03-14T13:59:32;6.78;;;1.10;;
58974;SDS011;44751;52.236;5.178;2023-03-14T14:02:00;9.18;;;1.80;;
58974;SDS011;44751;52.236;5.178;2023-03-14T14:04:38;7.47;;;1.42;;
58974;SDS011;44751;52.236;5.178;2023-03-14T14:07:08;6.68;;;1.30;;
58974;SDS011;44751;52.236;5.178;2023-03-14T14:09:39;5.18;;;1.10;;
58974;SDS011;44751;52.236;5.178;2023-03-14T14:12:12;5.80;;;2.00;;
58974;SDS011;44751;52.236;5.178;2023-03-14T14:14:44;4.50;;;1.23;;
58974;SDS011;44751;52.236;5.178;2023-03-14T14:17:26;6.07;;;1.17;;
58974;SDS011;44751;52.236;5.178;2023-03-14T14:19:59;5.95;;;1.17;;
58974;SDS011;44751;52.236;5.178;2023-03-14T14:22:28;6.20;;;1.33;;
58974;SDS011;44751;52.236;5.178;2023-03-14T14:24:55;5.63;;;1.17;;
58974;SDS011;44751;52.236;5.178;2023-03-14T14:27:29;8.98;;;1.35;;
58974;SDS011;44751;52.236;5.178;2023-03-14T14:30:05;6.35;;;1.10;;
58974;SDS011;44751;52.236;5.178;2023-03-14T14:32:50;9.25;;;1.67;;
58974;SDS011;44751;52.236;5.178;2023-03-14T14:37:49;6.78;;;1.25;;
58974;SDS011;44751;52.236;5.178;2023-03-14T14:40:23;5.43;;;1.30;;
58974;SDS011;44751;52.236;5.178;2023-03-14T14:42:51;3.28;;;1.00;;
58974;SDS011;44751;52.236;5.178;2023-03-14T14:45:19;9.95;;;2.00;;
58974;SDS011;44751;52.236;5.178;2023-03-14T14:50:55;6.78;;;1.38;;
58974;SDS011;44751;52.236;5.178;2023-03-14T14:53:36;2.95;;;1.20;;
58974;SDS011;44751;52.236;5.178;2023-03-14T14:56:06;5.40;;;1.15;;
58974;SDS011;44751;52.236;5.178;2023-03-14T14:58:35;5.78;;;1.45;;
58974;SDS011;44751;52.236;5.178;2023-03-14T15:01:11;6.43;;;1.27;;
58974;SDS011;44751;52.236;5.178;2023-03-14T15:03:51;4.97;;;0.90;;
58974;SDS011;44751;52.236;5.178;2023-03-14T15:06:19;6.05;;;0.93;;
58974;SDS011;44751;52.236;5.178;2023-03-14T15:08:46;8.13;;;2.05;;
58974;SDS011;44751;52.236;5.178;2023-03-14T15:11:18;3.97;;;1.40;;
58974;SDS011;44751;52.236;5.178;2023-03-14T15:13:49;7.82;;;1.58;;
58974;SDS011;44751;52.236;5.178;2023-03-14T15:16:18;6.60;;;2.05;;
58974;SDS011;44751;52.236;5.178;2023-03-14T15:18:48;5.75;;;1.20;;
58974;SDS011;44751;52.236;5.178;2023-03-14T15:23:49;3.75;;;1.20;;
58974;SDS011;44751;52.236;5.178;2023-03-14T15:26:19;4.07;;;1.05;;
58974;SDS011;44751;52.236;5.178;2023-03-14T15:28:47;7.38;;;1.10;;
58974;SDS011;44751;52.236;5.178;2023-03-14T15:31:14;9.55;;;1.40;;
58974;SDS011;44751;52.236;5.178;2023-03-14T15:33:45;6.43;;;1.00;;
58974;SDS011;44751;52.236;5.178;2023-03-14T15:36:20;9.82;;;1.70;;
58974;SDS011;44751;52.236;5.178;2023-03-14T15:38:52;8.57;;;1.80;;
58974;SDS011;44751;52.236;5.178;2023-03-14T15:41:24;11.05;;;1.77;;
58974;SDS011;44751;52.236;5.178;2023-03-14T15:43:51;7.53;;;1.40;;
58974;SDS011;44751;52.236;5.178;2023-03-14T15:46:17;7.25;;;1.35;;
58974;SDS011;44751;52.236;5.178;2023-03-14T15:48:44;8.88;;;1.38;;